Time,TemperatureF,DewpointF,PressureIn,WindDirection,WindDirectionDegrees,WindSpeedMPH,WindSpeedGustMPH,Humidity,HourlyPrecipIn,Conditions,Clouds,dailyrainin,SoftwareType,DateUTC
2013-09-15 00:00:00,71.0,62.0,30.01,SW,222,0.0,0.0,74,0.00,,,0.00,weatherlink.com 1.10,2013-09-15 05:00:00,
2013-09-15 00:15:00,70.2,62.0,30.01,SW,222,0.0,0.0,75,0.00,,,0.00,weatherlink.com 1.10,2013-09-15 05:15:00,
2013-09-15 00:30:00,69.3,62.0,30.00,SW,222,0.0,0.0,77,0.00,,,0.00,weatherlink.com 1.10,2013-09-15 05:30:00,
2013-09-15 00:45:00,68.7,62.0,30.00,SW,222,0.0,0.0,78,0.00,,,0.00,weatherlink.com 1.10,2013-09-15 05:45:00,
2013-09-15 01:00:00,67.9,61.0,30.00,SW,222,0.0,0.0,78,0.00,,,0.00,weatherlink.com 1.10,2013-09-15 06:00:00,
2013-09-15 01:15:00,67.4,61.0,30.00,SW,222,0.0,0.0,80,0.00,,,0.00,weatherlink.com 1.10,2013-09-15 06:15:00,
2013-09-15 01:30:00,67.0,61.0,30.01,SW,222,0.0,0.0,81,0.00,,,0.00,weatherlink.com 1.10,2013-09-15 06:30:00,
2013-09-15 01:45:00,66.9,62.0,30.00,SW,222,0.0,0.0,83,0.00,,,0.00,weatherlink.com 1.10,2013-09-15 06:45:00,
2013-09-15 02:00:00,66.8,61.0,30.00,SW,221,0.0,0.0,81,0.00,,,0.00,weatherlink.com 1.10,2013-09-15 07:00:00,
2013-09-15 02:15:00,66.7,61.0,30.00,SW,222,0.0,0.0,82,0.00,,,0.00,weatherlink.com 1.10,2013-09-15 07:15:00,
2013-09-15 02:30:00,66.4,61.0,30.00,SW,222,0.0,0.0,83,0.00,,,0.00,weatherlink.com 1.10,2013-09-15 07:30:00,
2013-09-15 02:45:00,66.1,61.0,29.99,SW,222,0.0,0.0,84,0.00,,,0.00,weatherlink.com 1.10,2013-09-15 07:45:00,
2013-09-15 03:01:00,65.8,61.0,30.00,SW,222,0.0,0.0,85,0.00,,,0.00,weatherlink.com 1.10,2013-09-15 08:01:00,
2013-09-15 03:16:00,65.7,61.0,29.99,SW,221,0.0,0.0,85,0.00,,,0.00,weatherlink.com 1.10,2013-09-15 08:16:00,
2013-09-15 03:31:00,65.4,61.0,30.00,SW,222,0.0,0.0,86,0.00,,,0.00,weatherlink.com 1.10,2013-09-15 08:31:00,
2013-09-15 03:46:00,65.2,61.0,30.00,SW,222,0.0,0.0,87,0.00,,,0.00,weatherlink.com 1.10,2013-09-15 08:46:00,
2013-09-15 04:01:00,64.9,61.0,30.00,SW,222,0.0,0.0,87,0.00,,,0.00,weatherlink.com 1.10,2013-09-15 09:01:00,
2013-09-15 04:16:00,64.8,61.0,30.00,SW,221,0.0,0.0,87,0.00,,,0.00,weatherlink.com 1.10,2013-09-15 09:16:00,
2013-09-15 04:31:00,64.9,61.0,30.00,SW,221,0.0,0.0,87,0.00,,,0.00,weatherlink.com 1.10,2013-09-15 09:31:00,
2013-09-15 04:46:00,65.0,61.0,30.01,SW,221,0.0,0.0,87,0.00,,,0.00,weatherlink.com 1.10,2013-09-15 09:46:00,
2013-09-15 05:01:00,64.6,61.0,30.01,SW,221,0.0,0.0,88,0.00,,,0.00,weatherlink.com 1.10,2013-09-15 10:01:00,
2013-09-15 05:16:00,64.4,61.0,30.01,SW,221,0.0,0.0,88,0.00,,,0.00,weatherlink.com 1.10,2013-09-15 10:16:00,
2013-09-15 05:31:00,64.4,61.0,30.01,SW,221,0.0,0.0,88,0.00,,,0.00,weatherlink.com 1.10,2013-09-15 10:31:00,
2013-09-15 05:46:00,64.3,61.0,30.01,SW,222,0.0,0.0,88,0.00,,,0.00,weatherlink.com 1.10,2013-09-15 10:46:00,
2013-09-15 06:01:00,64.1,61.0,30.02,SW,222,0.0,0.0,89,0.00,,,0.00,weatherlink.com 1.10,2013-09-15 11:01:00,
2013-09-15 06:16:00,64.0,61.0,30.03,SW,221,0.0,0.0,90,0.00,,,0.00,weatherlink.com 1.10,2013-09-15 11:16:00,
2013-09-15 06:31:00,64.0,61.0,30.03,SW,228,0.0,1.0,90,0.00,,,0.00,weatherlink.com 1.10,2013-09-15 11:31:00,
2013-09-15 06:46:00,63.9,61.0,30.02,SW,228,0.0,0.0,90,0.00,,,0.00,weatherlink.com 1.10,2013-09-15 11:46:00,
2013-09-15 07:01:00,64.2,61.0,30.03,SW,228,0.0,0.0,90,0.00,,,0.00,weatherlink.com 1.10,2013-09-15 12:01:00,
2013-09-15 07:16:00,66.4,62.0,30.03,SW,228,0.0,0.0,86,0.00,,,0.00,weatherlink.com 1.10,2013-09-15 12:16:00,
2013-09-15 07:31:00,68.4,63.0,30.04,SW,228,0.0,0.0,83,0.00,,,0.00,weatherlink.com 1.10,2013-09-15 12:31:00,
2013-09-15 07:46:00,71.4,64.0,30.04,SE,132,0.0,1.0,77,0.00,,,0.00,weatherlink.com 1.10,2013-09-15 12:46:00,
2013-09-15 08:01:00,73.5,65.0,30.04,West,269,0.0,1.0,75,0.00,,,0.00,weatherlink.com 1.10,2013-09-15 13:01:00,
2013-09-15 08:16:00,75.8,66.0,30.05,ENE,63,0.0,1.0,72,0.00,,,0.00,weatherlink.com 1.10,2013-09-15 13:16:00,
2013-09-15 08:31:00,75.4,65.0,30.05,ENE,70,2.0,3.0,71,0.00,,,0.00,weatherlink.com 1.10,2013-09-15 13:31:00,
2013-09-15 08:46:00,76.9,66.0,30.05,NNW,328,0.0,3.0,70,0.00,,,0.00,weatherlink.com 1.10,2013-09-15 13:46:00,
2013-09-15 09:01:00,77.0,67.0,30.06,ENE,76,0.0,4.0,72,0.00,,,0.00,weatherlink.com 1.10,2013-09-15 14:01:00,
2013-09-15 09:16:00,77.8,68.0,30.06,NE,54,1.0,5.0,72,0.00,,,0.00,weatherlink.com 1.10,2013-09-15 14:16:00,
2013-09-15 09:31:00,78.9,68.0,30.06,East,98,4.0,5.0,69,0.00,,,0.00,weatherlink.com 1.10,2013-09-15 14:31:00,
2013-09-15 09:46:00,80.7,68.0,30.07,ENE,70,3.0,4.0,66,0.00,,,0.00,weatherlink.com 1.10,2013-09-15 14:46:00,
2013-09-15 10:01:00,82.3,69.0,30.07,East,100,3.0,4.0,64,0.00,,,0.00,weatherlink.com 1.10,2013-09-15 15:01:00,
2013-09-15 10:16:00,82.3,69.0,30.07,East,94,2.0,6.0,65,0.00,,,0.00,weatherlink.com 1.10,2013-09-15 15:16:00,
2013-09-15 10:31:00,83.9,69.0,30.07,East,100,3.0,5.0,62,0.00,,,0.00,weatherlink.com 1.10,2013-09-15 15:31:00,
2013-09-15 10:47:00,85.1,71.0,30.07,NW,307,1.0,6.0,62,0.00,,,0.00,weatherlink.com 1.10,2013-09-15 15:47:00,
2013-09-15 11:02:00,86.2,70.0,30.07,ENE,63,2.0,5.0,58,0.00,,,0.00,weatherlink.com 1.10,2013-09-15 16:02:00,
2013-09-15 11:17:00,86.8,69.0,30.07,SE,131,2.0,5.0,56,0.00,,,0.00,weatherlink.com 1.10,2013-09-15 16:17:00,
2013-09-15 11:32:00,87.4,69.0,30.07,ENE,74,2.0,7.0,55,0.00,,,0.00,weatherlink.com 1.10,2013-09-15 16:32:00,
2013-09-15 11:47:00,88.1,70.0,30.07,SE,126,2.0,6.0,55,0.00,,,0.00,weatherlink.com 1.10,2013-09-15 16:47:00,
2013-09-15 12:02:00,89.4,71.0,30.06,ENE,63,1.0,5.0,54,0.00,,,0.00,weatherlink.com 1.10,2013-09-15 17:02:00,
2013-09-15 12:17:00,88.8,71.0,30.06,East,97,1.0,5.0,56,0.00,,,0.00,weatherlink.com 1.10,2013-09-15 17:17:00,
2013-09-15 12:32:00,89.1,71.0,30.06,East,97,4.0,6.0,55,0.00,,,0.00,weatherlink.com 1.10,2013-09-15 17:32:00,
2013-09-15 12:47:00,88.3,71.0,30.05,SSW,200,1.0,4.0,57,0.00,,,0.00,weatherlink.com 1.10,2013-09-15 17:47:00,
2013-09-15 13:02:00,89.3,72.0,30.05,NE,53,1.0,5.0,56,0.00,,,0.00,weatherlink.com 1.10,2013-09-15 18:02:00,
2013-09-15 13:17:00,90.7,71.0,30.05,East,87,1.0,7.0,53,0.00,,,0.00,weatherlink.com 1.10,2013-09-15 18:17:00,
2013-09-15 13:32:00,92.1,71.0,30.04,ESE,108,2.0,5.0,50,0.00,,,0.00,weatherlink.com 1.10,2013-09-15 18:32:00,
2013-09-15 13:47:00,91.2,72.0,30.04,ENE,59,2.0,6.0,53,0.00,,,0.00,weatherlink.com 1.10,2013-09-15 18:47:00,
2013-09-15 14:02:00,91.2,71.0,30.03,East,80,3.0,6.0,51,0.00,,,0.00,weatherlink.com 1.10,2013-09-15 19:02:00,
2013-09-15 14:17:00,91.3,71.0,30.03,East,88,4.0,5.0,52,0.00,,,0.00,weatherlink.com 1.10,2013-09-15 19:17:00,
2013-09-15 14:32:00,91.7,71.0,30.03,ESE,105,2.0,4.0,51,0.00,,,0.00,weatherlink.com 1.10,2013-09-15 19:32:00,
2013-09-15 14:47:00,91.2,72.0,30.02,ESE,115,3.0,4.0,53,0.00,,,0.00,weatherlink.com 1.10,2013-09-15 19:47:00,
2013-09-15 15:02:00,91.3,71.0,30.02,North,8,2.0,4.0,51,0.00,,,0.00,weatherlink.com 1.10,2013-09-15 20:02:00,
2013-09-15 15:17:00,92.6,72.0,30.01,SE,127,1.0,3.0,51,0.00,,,0.00,weatherlink.com 1.10,2013-09-15 20:17:00,
2013-09-15 15:32:00,92.8,71.0,30.01,East,97,0.0,2.0,49,0.00,,,0.00,weatherlink.com 1.10,2013-09-15 20:32:00,
2013-09-15 15:48:00,91.9,71.0,30.01,East,96,1.0,4.0,50,0.00,,,0.00,weatherlink.com 1.10,2013-09-15 20:48:00,
2013-09-15 16:02:00,92.3,71.0,30.01,South,188,1.0,3.0,50,0.00,,,0.00,weatherlink.com 1.10,2013-09-15 21:02:00,
2013-09-15 16:17:00,93.1,71.0,30.00,ENE,66,1.0,3.0,49,0.00,,,0.00,weatherlink.com 1.10,2013-09-15 21:17:00,
2013-09-15 16:32:00,93.3,73.0,30.00,West,269,0.0,2.0,51,0.00,,,0.00,weatherlink.com 1.10,2013-09-15 21:32:00,
2013-09-15 16:47:00,92.7,73.0,30.00,North,350,0.0,3.0,52,0.00,,,0.00,weatherlink.com 1.10,2013-09-15 21:47:00,
2013-09-15 17:02:00,91.4,72.0,30.00,WNW,291,0.0,2.0,53,0.00,,,0.00,weatherlink.com 1.10,2013-09-15 22:02:00,
2013-09-15 17:17:00,91.0,72.0,30.00,WNW,290,0.0,1.0,54,0.00,,,0.00,weatherlink.com 1.10,2013-09-15 22:17:00,
2013-09-15 17:32:00,90.3,72.0,30.01,WNW,291,0.0,2.0,55,0.00,,,0.00,weatherlink.com 1.10,2013-09-15 22:32:00,
2013-09-15 17:47:00,88.8,74.0,30.00,NW,316,0.0,2.0,61,0.00,,,0.00,weatherlink.com 1.10,2013-09-15 22:47:00,
2013-09-15 18:02:00,86.8,75.0,30.01,East,86,0.0,1.0,67,0.00,,,0.00,weatherlink.com 1.10,2013-09-15 23:02:00,
2013-09-15 18:17:00,85.3,75.0,30.01,East,86,0.0,0.0,70,0.00,,,0.00,weatherlink.com 1.10,2013-09-15 23:17:00,
2013-09-15 18:32:00,83.9,74.0,30.02,East,86,0.0,0.0,72,0.00,,,0.00,weatherlink.com 1.10,2013-09-15 23:32:00,
2013-09-15 18:47:00,83.0,74.0,30.02,East,86,0.0,1.0,74,0.00,,,0.00,weatherlink.com 1.10,2013-09-15 23:47:00,
2013-09-15 19:02:00,82.2,74.0,30.02,East,86,0.0,0.0,76,0.00,,,0.00,weatherlink.com 1.10,2013-09-16 00:02:00,
2013-09-15 19:17:00,81.2,74.0,30.02,East,86,0.0,0.0,79,0.00,,,0.00,weatherlink.com 1.10,2013-09-16 00:17:00,
2013-09-15 19:32:00,80.3,74.0,30.02,East,86,0.0,0.0,81,0.00,,,0.00,weatherlink.com 1.10,2013-09-16 00:32:00,
2013-09-15 19:47:00,79.2,73.0,30.03,East,86,0.0,0.0,82,0.00,,,0.00,weatherlink.com 1.10,2013-09-16 00:47:00,
2013-09-15 20:02:00,78.5,73.0,30.04,East,86,0.0,0.0,84,0.00,,,0.00,weatherlink.com 1.10,2013-09-16 01:02:00,
2013-09-15 20:17:00,77.6,73.0,30.05,East,86,0.0,0.0,85,0.00,,,0.00,weatherlink.com 1.10,2013-09-16 01:17:00,
2013-09-15 20:32:00,77.6,73.0,30.05,ESE,121,0.0,1.0,85,0.00,,,0.00,weatherlink.com 1.10,2013-09-16 01:32:00,
2013-09-15 20:47:00,78.3,74.0,30.06,ENE,65,0.0,1.0,85,0.00,,,0.00,weatherlink.com 1.10,2013-09-16 01:47:00,
2013-09-15 21:02:00,77.7,73.0,30.06,ENE,65,0.0,0.0,86,0.00,,,0.00,weatherlink.com 1.10,2013-09-16 02:02:00,
2013-09-15 21:17:00,77.4,73.0,30.06,NNW,335,0.0,0.0,87,0.00,,,0.00,weatherlink.com 1.10,2013-09-16 02:17:00,
2013-09-15 21:32:00,77.3,74.0,30.06,NNW,335,0.0,0.0,88,0.00,,,0.00,weatherlink.com 1.10,2013-09-16 02:32:00,
2013-09-15 21:47:00,77.3,74.0,30.07,NNW,334,0.0,0.0,88,0.00,,,0.00,weatherlink.com 1.10,2013-09-16 02:47:00,
2013-09-15 22:02:00,76.9,73.0,30.06,NNW,335,0.0,0.0,88,0.00,,,0.00,weatherlink.com 1.10,2013-09-16 03:02:00,
2013-09-15 22:17:00,76.5,73.0,30.07,NNW,331,0.0,0.0,89,0.00,,,0.00,weatherlink.com 1.10,2013-09-16 03:17:00,
2013-09-15 22:32:00,76.4,73.0,30.07,NNW,331,0.0,0.0,90,0.00,,,0.00,weatherlink.com 1.10,2013-09-16 03:32:00,
2013-09-15 22:47:00,76.9,73.0,30.07,East,90,0.0,1.0,88,0.00,,,0.00,weatherlink.com 1.10,2013-09-16 03:47:00,
2013-09-15 23:02:00,76.8,73.0,30.07,ESE,109,1.0,1.0,88,0.00,,,0.00,weatherlink.com 1.10,2013-09-16 04:02:00,
2013-09-15 23:17:00,76.3,73.0,30.07,East,101,0.0,1.0,89,0.00,,,0.00,weatherlink.com 1.10,2013-09-16 04:17:00,
2013-09-15 23:32:00,75.5,73.0,30.07,East,101,0.0,0.0,90,0.00,,,0.00,weatherlink.com 1.10,2013-09-16 04:32:00,
2013-09-15 23:47:00,75.1,73.0,30.07,East,101,0.0,0.0,92,0.00,,,0.00,weatherlink.com 1.10,2013-09-16 04:47:00,